Time;durP1;ratioP1;P1;durP2;ratioP2;P2;SDS_P1;SDS_P2;PMS_P1;PMS_P2;Temp;Humidity;BMP_temperature;BMP_pressure;BME280_temperature;BME280_humidity;BME280_pressure;Samples;Min_cycle;Max_cycle;Signal;HPM_P1;HPM_P2
2022/11/22 00:00:19;;;;;;;;;0.00;0.00;;;;;7.52;90.24;97762.72;5014744;28;45546;-73
2022/11/22 00:02:45;;;;;;;;;0.00;0.00;;;;;7.47;89.72;97767.34;5006014;28;45469;-73
2022/11/22 00:05:11;;;;;;;;;0.00;0.00;;;;;7.43;89.32;97769.25;5007226;28;45371;-73
2022/11/22 00:07:36;;;;;;;;;1.00;0.00;;;;;7.40;90.05;97766.78;5010912;28;45569;-73
2022/11/22 00:10:04;;;;;;;;;0.00;0.00;;;;;7.35;89.90;97768.81;5006858;28;46255;-73
2022/11/22 00:12:29;;;;;;;;;0.00;0.00;;;;;7.31;90.56;97773.34;5010970;28;45459;-73
2022/11/22 00:14:55;;;;;;;;;0.00;0.00;;;;;7.27;90.95;97763.91;5008816;28;46004;-73
2022/11/22 00:17:20;;;;;;;;;0.00;0.00;;;;;7.24;91.92;97773.69;5005365;28;45747;-73
2022/11/22 00:19:45;;;;;;;;;0.00;0.00;;;;;7.21;92.69;97768.59;5012623;28;46315;-73
2022/11/22 00:22:11;;;;;;;;;0.25;0.00;;;;;7.19;92.87;97775.72;5008495;28;45507;-73
2022/11/22 00:24:36;;;;;;;;;2.00;1.00;;;;;7.15;94.08;97775.00;5040527;28;45381;-73
2022/11/22 00:27:01;;;;;;;;;0.00;0.00;;;;;7.13;94.05;97781.22;5009802;28;45494;-73
2022/11/22 00:29:27;;;;;;;;;2.00;0.00;;;;;7.10;94.08;97782.22;5016106;28;45396;-73
2022/11/22 00:31:52;;;;;;;;;2.00;0.00;;;;;7.10;94.22;97784.84;5005837;28;45454;-73
2022/11/22 00:34:18;;;;;;;;;1.00;1.00;;;;;7.10;94.28;97779.59;5004058;28;45369;-73
2022/11/22 00:36:43;;;;;;;;;0.50;0.50;;;;;7.10;93.71;97778.75;5003293;28;45426;-73
2022/11/22 00:39:08;;;;;;;;;1.00;0.00;;;;;7.09;93.38;97780.53;4995590;28;48020;-73
2022/11/22 00:41:34;;;;;;;;;0.00;0.00;;;;;7.08;94.10;97773.56;5008610;28;45542;-73
2022/11/22 00:43:59;;;;;;;;;0.00;0.00;;;;;7.10;94.04;97773.50;5009282;28;45431;-73
2022/11/22 00:46:25;;;;;;;;;0.00;0.00;;;;;7.11;93.73;97764.72;5008670;28;45443;-73
2022/11/22 00:48:50;;;;;;;;;0.00;0.00;;;;;7.12;93.77;97763.81;5010623;28;45368;-73
2022/11/22 00:51:16;;;;;;;;;0.00;0.00;;;;;7.15;94.27;97772.38;5010776;28;45364;-73
2022/11/22 00:53:41;;;;;;;;;0.00;0.00;;;;;7.18;94.44;97776.63;5005238;28;45388;-73
2022/11/22 00:56:06;;;;;;;;;0.00;0.00;;;;;7.21;94.19;97790.41;5041896;28;45451;-73
2022/11/22 00:58:32;;;;;;;;;0.00;0.00;;;;;7.22;94.42;97802.59;5010253;28;47278;-74
2022/11/22 01:00:57;;;;;;;;;0.00;0.00;;;;;7.23;94.13;97800.81;5011753;28;45500;-74
2022/11/22 01:03:23;;;;;;;;;0.00;0.00;;;;;7.24;94.28;97797.28;5007313;28;45435;-73
2022/11/22 01:05:48;;;;;;;;;0.00;0.00;;;;;7.24;94.85;97792.88;5010590;28;45631;-73
2022/11/22 01:08:14;;;;;;;;;2.00;0.00;;;;;7.27;95.56;97797.13;5011684;28;46453;-73
2022/11/22 01:10:39;;;;;;;;;1.50;1.00;;;;;7.29;96.01;97793.53;5011380;28;45445;-73
2022/11/22 01:13:05;;;;;;;;;9.00;3.50;;;;;7.34;97.08;97793.31;5013785;28;45452;-73
2022/11/22 01:15:31;;;;;;;;;3.50;2.00;;;;;7.37;97.08;97800.19;5009891;28;45520;-73
2022/11/22 01:17:57;;;;;;;;;4.50;4.50;;;;;7.39;96.70;97795.69;4996164;28;46156;-73
2022/11/22 01:20:22;;;;;;;;;3.00;3.00;;;;;7.43;97.19;97787.59;5031773;28;45464;-73
2022/11/22 01:22:48;;;;;;;;;3.75;3.00;;;;;7.46;96.74;97786.63;5003345;28;45368;-73
2022/11/22 01:25:14;;;;;;;;;2.00;2.00;;;;;7.48;96.71;97793.50;5001662;28;45437;-73
2022/11/22 01:27:39;;;;;;;;;3.75;1.00;;;;;7.48;96.36;97792.63;5000361;28;45557;-73
2022/11/22 01:30:05;;;;;;;;;1.00;1.00;;;;;7.45;95.96;97788.38;5035765;28;45400;-73
2022/11/22 01:32:31;;;;;;;;;3.00;2.00;;;;;7.44;96.01;97793.69;5004172;28;45419;-73
2022/11/22 01:34:56;;;;;;;;;2.75;2.75;;;;;7.44;95.99;97793.69;5003342;28;45390;-73
2022/11/22 01:37:21;;;;;;;;;4.75;3.00;;;;;7.44;96.78;97786.69;5007886;28;46291;-73
2022/11/22 01:39:47;;;;;;;;;2.75;2.75;;;;;7.46;97.40;97784.84;5004130;28;45598;-73
2022/11/22 01:42:13;;;;;;;;;5.00;3.00;;;;;7.51;97.77;97788.09;5005883;28;45652;-73
2022/11/22 01:44:40;;;;;;;;;4.25;3.00;;;;;7.54;98.21;97784.47;5011558;28;45432;-73
2022/11/22 01:47:12;;;;;;;;;7.00;6.50;;;;;7.58;98.01;97784.22;5001894;28;45491;-73
2022/11/22 01:49:50;;;;;;;;;6.25;6.25;;;;;7.59;97.90;97791.19;5036367;28;45816;-73
2022/11/22 01:52:22;;;;;;;;;8.00;5.00;;;;;7.61;97.85;97791.09;5022999;28;45493;-73
2022/11/22 01:54:54;;;;;;;;;10.00;9.00;;;;;7.64;98.34;97791.81;5011809;28;45435;-73
2022/11/22 01:57:24;;;;;;;;;7.67;7.67;;;;;7.68;98.25;97798.59;5008208;28;46141;-73
2022/11/22 01:59:57;;;;;;;;;6.50;6.50;;;;;7.69;98.20;97787.19;5023290;28;45386;-73
2022/11/22 02:02:23;;;;;;;;;10.67;9.67;;;;;7.70;97.95;97786.28;5013171;28;45396;-73
2022/11/22 02:04:51;;;;;;;;;7.67;7.67;;;;;7.72;97.62;97789.63;5009444;28;45584;-73
2022/11/22 02:07:31;;;;;;;;;9.67;5.67;;;;;7.73;97.97;97795.72;5007819;28;45506;-73
2022/11/22 02:09:57;;;;;;;;;8.67;5.33;;;;;7.75;97.80;97798.28;5005275;28;45544;-73
2022/11/22 02:12:27;;;;;;;;;6.33;4.00;;;;;7.75;97.75;97807.00;5012381;28;45557;-73
2022/11/22 02:14:53;;;;;;;;;3.25;3.00;;;;;7.74;97.60;97805.31;4998302;28;45400;-73
2022/11/22 02:17:18;;;;;;;;;5.00;3.50;;;;;7.74;97.34;97799.19;5003130;28;46322;-73
2022/11/22 02:19:48;;;;;;;;;4.00;4.00;;;;;7.72;97.02;97794.88;5006029;28;45576;-73
2022/11/22 02:22:28;;;;;;;;;2.00;2.00;;;;;7.72;97.26;97796.66;5007235;28;45488;-73
2022/11/22 02:25:25;;;;;;;;;9.50;6.25;;;;;7.70;97.42;97796.75;5002120;28;45411;-73
2022/11/22 02:27:51;;;;;;;;;7.00;7.00;;;;;7.68;97.60;97797.75;5002364;28;46209;-73
2022/11/22 02:30:16;;;;;;;;;8.33;8.33;;;;;7.68;97.80;97798.59;5010772;28;45802;-73
2022/11/22 02:32:42;;;;;;;;;8.67;8.67;;;;;7.69;98.14;97792.44;5012811;28;45426;-73
2022/11/22 02:35:23;;;;;;;;;9.00;6.33;;;;;7.70;98.09;97793.28;5007346;28;45504;-73
2022/11/22 02:37:54;;;;;;;;;8.67;8.67;;;;;7.71;98.01;97787.09;5009159;28;45455;-73
2022/11/22 02:40:20;;;;;;;;;6.00;5.67;;;;;7.69;98.14;97784.56;5007111;28;45525;-73
2022/11/22 02:43:00;;;;;;;;;10.67;9.33;;;;;7.70;98.26;97791.50;4997995;28;45497;-73
2022/11/22 02:45:25;;;;;;;;;16.67;10.33;;;;;7.71;98.07;97795.81;5029318;28;45416;-73
2022/11/22 02:47:50;;;;;;;;;15.67;14.33;;;;;7.71;98.71;97790.56;5003376;28;45337;-73
2022/11/22 02:50:16;;;;;;;;;17.00;12.00;;;;;7.73;98.43;97793.09;5000758;28;45326;-72
2022/11/22 02:52:41;;;;;;;;;11.33;11.33;;;;;7.72;98.28;97794.03;5001370;28;45323;-72
2022/11/22 02:55:07;;;;;;;;;15.00;11.33;;;;;7.73;98.30;97790.47;5002840;28;45554;-73
2022/11/22 02:57:32;;;;;;;;;10.67;10.00;;;;;7.74;98.18;97792.19;5001076;28;46388;-72
2022/11/22 02:59:58;;;;;;;;;11.33;11.00;;;;;7.74;98.04;97791.34;5005950;28;45413;-72
2022/11/22 03:02:23;;;;;;;;;12.00;10.00;;;;;7.72;98.17;97792.25;5036288;28;45471;-72
2022/11/22 03:04:49;;;;;;;;;7.33;6.33;;;;;7.72;98.14;97801.91;5009303;28;45433;-72
2022/11/22 03:07:16;;;;;;;;;6.67;5.00;;;;;7.68;96.88;97801.22;5006993;28;45483;-72
2022/11/22 03:09:41;;;;;;;;;1.00;1.00;;;;;7.66;95.29;97799.59;5012121;28;45446;-73
2022/11/22 03:12:06;;;;;;;;;2.00;2.00;;;;;7.62;95.69;97800.66;5008052;28;45902;-73
2022/11/22 03:14:32;;;;;;;;;2.75;2.75;;;;;7.57;95.10;97795.66;4995415;28;45473;-72
2022/11/22 03:16:57;;;;;;;;;0.75;0.75;;;;;7.55;94.76;97791.41;4997770;28;46068;-74
2022/11/22 03:19:22;;;;;;;;;1.25;1.25;;;;;7.52;94.42;97781.09;4995317;28;45414;-74
2022/11/22 03:21:49;;;;;;;;;0.75;0.75;;;;;7.49;94.22;97768.97;5002680;28;45398;-72
2022/11/22 03:24:14;;;;;;;;;0.75;0.75;;;;;7.48;94.33;97769.03;4999801;28;45688;-72
2022/11/22 03:26:40;;;;;;;;;2.00;2.00;;;;;7.50;95.15;97770.66;5000062;28;45413;-74
2022/11/22 03:29:05;;;;;;;;;3.75;3.00;;;;;7.46;95.53;97774.34;5004587;28;45447;-73
2022/11/22 03:31:31;;;;;;;;;3.00;2.00;;;;;7.43;95.64;97766.63;5002121;28;45413;-74
2022/11/22 03:33:56;;;;;;;;;2.75;2.75;;;;;7.44;96.14;97764.88;5023839;28;45591;-74
2022/11/22 03:36:22;;;;;;;;;2.50;2.25;;;;;7.45;96.71;97763.94;5002513;28;45587;-74
2022/11/22 03:38:49;;;;;;;;;4.25;4.25;;;;;7.45;96.91;97779.66;5010270;28;45454;-74
2022/11/22 03:41:14;;;;;;;;;7.00;5.50;;;;;7.45;97.17;97787.53;5002109;28;45564;-72
2022/11/22 03:43:40;;;;;;;;;7.00;5.00;;;;;7.43;97.24;97792.84;5012353;28;45460;-74
2022/11/22 03:46:05;;;;;;;;;6.25;6.25;;;;;7.45;97.60;97788.38;5007000;28;45431;-73
2022/11/22 03:48:31;;;;;;;;;11.33;9.00;;;;;7.48;97.73;97790.00;4994195;28;45468;-74
2022/11/22 03:51:06;;;;;;;;;15.00;8.67;;;;;7.48;97.85;97788.25;5027925;28;45431;-73
2022/11/22 03:53:32;;;;;;;;;6.50;4.00;;;;;7.46;97.22;97784.84;4996039;28;45511;-74
2022/11/22 03:55:57;;;;;;;;;4.00;3.25;;;;;7.40;96.40;97782.50;4997770;28;46179;-73
2022/11/22 03:58:23;;;;;;;;;5.00;3.00;;;;;7.38;96.60;97788.75;4997115;28;45412;-73
2022/11/22 04:00:48;;;;;;;;;3.00;3.00;;;;;7.35;96.82;97797.63;5010397;28;45739;-73
2022/11/22 04:03:13;;;;;;;;;2.25;2.25;;;;;7.30;96.37;97797.84;4995195;28;45456;-73
2022/11/22 04:05:39;;;;;;;;;3.00;1.00;;;;;7.28;96.70;97796.22;5006459;28;45436;-73
2022/11/22 04:08:04;;;;;;;;;2.00;2.00;;;;;7.25;96.58;97791.97;5009627;28;45341;-73
2022/11/22 04:10:29;;;;;;;;;1.25;0.75;;;;;7.25;96.07;97788.50;5040771;28;45485;-73
2022/11/22 04:12:57;;;;;;;;;1.00;1.00;;;;;7.24;95.94;97792.03;5010213;28;45464;-73
2022/11/22 04:15:22;;;;;;;;;0.75;0.75;;;;;7.24;96.31;97787.66;5010172;28;45482;-73
2022/11/22 04:17:47;;;;;;;;;1.00;1.00;;;;;7.24;96.62;97792.03;5005012;28;45709;-72
2022/11/22 04:23:11;;;;;;;;;2.75;2.00;;;;;7.25;97.56;97786.72;5008035;28;45371;-72
2022/11/22 04:25:39;;;;;;;;;3.75;3.75;;;;;7.26;97.61;97790.19;5002189;28;46776;-73
2022/11/22 04:28:07;;;;;;;;;7.25;5.00;;;;;7.27;97.60;97791.91;5006340;28;45612;-73
2022/11/22 04:33:18;;;;;;;;;9.33;6.67;;;;;7.29;98.35;97806.63;5005153;28;45456;-73
2022/11/22 04:35:44;;;;;;;;;11.67;8.00;;;;;7.31;98.39;97803.94;5002004;28;46220;-73
2022/11/22 04:38:11;;;;;;;;;8.67;5.67;;;;;7.34;98.32;97806.44;4996374;28;45530;-73
2022/11/22 04:40:37;;;;;;;;;9.33;7.33;;;;;7.36;98.23;97815.06;5008508;28;45423;-73
2022/11/22 04:45:47;;;;;;;;;1.00;1.00;;;;;7.31;96.88;97815.28;4998600;28;45739;-73
2022/11/22 04:48:13;;;;;;;;;2.00;2.00;;;;;7.24;96.66;97819.09;5001062;28;45438;-73
2022/11/22 04:53:24;;;;;;;;;2.00;1.00;;;;;7.13;96.10;97820.53;4997211;28;45508;-73
2022/11/22 04:55:50;;;;;;;;;2.25;2.25;;;;;7.11;97.12;97815.38;5003825;28;45544;-73
2022/11/22 04:58:16;;;;;;;;;2.75;2.75;;;;;7.10;97.22;97810.19;5044625;28;45556;-73
2022/11/22 05:00:42;;;;;;;;;5.00;3.00;;;;;7.11;97.44;97822.38;5024417;28;45425;-73
2022/11/22 05:03:08;;;;;;;;;5.00;4.00;;;;;7.12;97.65;97824.09;5040477;28;45427;-72
2022/11/22 05:05:36;;;;;;;;;6.00;4.33;;;;;7.12;97.99;97832.78;5010588;28;45568;-73
2022/11/22 05:08:02;;;;;;;;;2.00;2.00;;;;;7.13;97.90;97831.03;5012770;28;45485;-73
2022/11/22 05:10:27;;;;;;;;;7.75;4.50;;;;;7.13;97.71;97831.03;5000007;28;45532;-73
2022/11/22 05:12:53;;;;;;;;;6.25;4.00;;;;;7.11;97.81;97835.47;5015146;28;45432;-73
2022/11/22 05:15:19;;;;;;;;;5.00;4.50;;;;;7.07;97.64;97834.78;5000720;28;45671;-73
2022/11/22 05:17:44;;;;;;;;;6.00;4.25;;;;;7.03;97.29;97841.09;5003119;28;45416;-73
2022/11/22 05:20:10;;;;;;;;;5.50;3.50;;;;;7.03;97.54;97850.72;5009369;28;45353;-73
2022/11/22 05:25:19;;;;;;;;;2.00;1.00;;;;;6.97;96.93;97857.09;5002476;28;45415;-73
2022/11/22 05:27:44;;;;;;;;;5.00;5.00;;;;;6.95;97.35;97859.78;5000693;28;45362;-73
2022/11/22 05:30:10;;;;;;;;;1.75;1.75;;;;;6.93;97.26;97859.00;5041312;28;45701;-73
2022/11/22 05:32:35;;;;;;;;;4.50;4.50;;;;;6.93;97.14;97869.47;4999778;28;45453;-73
2022/11/22 05:35:01;;;;;;;;;0.00;0.00;;;;;6.91;97.02;97866.06;5002313;28;45463;-73
2022/11/22 05:37:27;;;;;;;;;2.00;2.00;;;;;6.88;96.85;97867.97;5007901;28;45537;-73
2022/11/22 05:39:52;;;;;;;;;4.50;2.75;;;;;6.83;97.23;97864.72;5008562;28;45570;-73
2022/11/22 05:42:18;;;;;;;;;5.00;3.00;;;;;6.82;97.67;97858.63;5011791;28;45697;-73
2022/11/22 05:44:44;;;;;;;;;4.00;4.00;;;;;6.83;98.06;97857.72;5012470;28;45450;-73
2022/11/22 05:47:10;;;;;;;;;3.33;3.00;;;;;6.88;97.98;97870.59;5005975;28;45428;-73
2022/11/22 05:49:35;;;;;;;;;6.00;3.75;;;;;6.91;98.70;97875.69;5001645;28;45629;-73
2022/11/22 05:52:02;;;;;;;;;2.25;2.25;;;;;6.94;98.66;97876.41;4998914;28;45529;-72
2022/11/22 05:54:28;;;;;;;;;3.25;3.25;;;;;6.98;98.50;97882.38;5001130;28;45479;-73
2022/11/22 05:56:54;;;;;;;;;2.75;2.75;;;;;7.02;98.61;97893.56;5000493;28;45319;-73
2022/11/22 05:59:19;;;;;;;;;4.50;3.00;;;;;6.98;97.40;97905.94;5001979;28;45437;-73
2022/11/22 06:01:45;;;;;;;;;2.75;2.75;;;;;6.92;96.13;97903.59;5008294;28;45483;-72
2022/11/22 06:04:10;;;;;;;;;3.75;3.25;;;;;6.86;97.16;97909.13;5045845;28;45737;-72
2022/11/22 06:06:36;;;;;;;;;3.75;3.75;;;;;6.80;97.83;97893.69;5005773;28;45411;-72
2022/11/22 06:09:02;;;;;;;;;4.00;4.00;;;;;6.75;97.79;97898.25;5006565;28;45425;-74
2022/11/22 06:11:27;;;;;;;;;7.00;3.75;;;;;6.75;98.05;97916.59;5006966;28;45635;-73
2022/11/22 06:13:59;;;;;;;;;3.00;3.00;;;;;6.74;98.47;97918.34;5009128;28;46583;-74
2022/11/22 06:16:26;;;;;;;;;1.00;1.00;;;;;6.74;99.50;97930.59;5011669;28;45333;-73
2022/11/22 06:18:55;;;;;;;;;4.00;3.00;;;;;6.71;99.03;97931.59;5023725;28;45395;-73
2022/11/22 06:21:24;;;;;;;;;4.00;2.75;;;;;6.69;98.55;97929.97;5001281;28;45428;-72
2022/11/22 06:23:52;;;;;;;;;3.00;3.00;;;;;6.67;98.31;97937.91;5027942;28;47864;-74
2022/11/22 06:26:19;;;;;;;;;3.00;1.00;;;;;6.66;99.34;97938.81;4993955;28;45478;-73
2022/11/22 06:28:46;;;;;;;;;6.25;3.50;;;;;6.63;98.93;97931.94;4999801;28;45491;-73
2022/11/22 06:31:15;;;;;;;;;0.50;0.50;;;;;6.64;98.94;97949.34;4994051;28;45468;-73
2022/11/22 06:33:42;;;;;;;;;2.00;1.00;;;;;6.64;90.56;97944.13;5003574;28;45564;-73
2022/11/22 06:36:08;;;;;;;;;2.75;1.00;;;;;6.71;90.81;97944.69;5007571;28;46135;-73
2022/11/22 06:38:34;;;;;;;;;0.75;0.75;;;;;6.75;91.57;97946.25;5008216;28;45516;-73
2022/11/22 06:41:04;;;;;;;;;1.00;1.00;;;;;6.79;90.74;97949.59;5029182;28;45943;-72
2022/11/22 06:43:32;;;;;;;;;1.00;1.00;;;;;6.77;89.63;97948.81;5006787;28;45426;-73
2022/11/22 06:45:58;;;;;;;;;3.00;2.00;;;;;6.75;92.22;97945.41;5007922;28;45351;-73
2022/11/22 06:48:42;;;;;;;;;2.25;1.25;;;;;6.75;94.36;97963.72;5012684;28;45595;-73
2022/11/22 06:51:13;;;;;;;;;6.00;2.00;;;;;6.73;93.81;97978.66;5007228;28;45663;-73
2022/11/22 06:53:39;;;;;;;;;4.00;3.00;;;;;6.69;94.08;97980.59;5014312;28;47612;-73
2022/11/22 06:56:11;;;;;;;;;4.00;2.75;;;;;6.67;93.59;97981.56;5003539;28;45326;-72
2022/11/22 06:58:37;;;;;;;;;4.75;3.00;;;;;6.66;94.11;97975.47;5009454;28;45459;-72
2022/11/22 07:01:09;;;;;;;;;2.50;1.50;;;;;6.66;94.13;97978.09;5006886;28;45476;-72
2022/11/22 07:03:39;;;;;;;;;1.00;1.00;;;;;6.68;91.39;97984.13;5011547;28;45455;-72
2022/11/22 07:06:05;;;;;;;;;2.50;1.25;;;;;6.72;91.03;97974.34;5007985;28;45589;-74
2022/11/22 07:08:31;;;;;;;;;2.00;2.00;;;;;6.77;92.13;97975.84;5004517;28;45316;-72
2022/11/22 07:11:10;;;;;;;;;2.00;1.75;;;;;6.81;91.18;97995.75;5007828;28;45633;-73
2022/11/22 07:13:36;;;;;;;;;0.00;0.00;;;;;6.83;90.85;97991.31;5010067;28;48112;-72
2022/11/22 07:16:05;;;;;;;;;1.50;1.00;;;;;6.82;89.40;97999.25;5035708;28;45345;-72
2022/11/22 07:18:31;;;;;;;;;0.50;0.00;;;;;6.81;87.90;98000.16;5004996;28;45371;-74
2022/11/22 07:21:01;;;;;;;;;1.50;1.50;;;;;6.79;87.16;97996.75;5002456;28;45468;-74
2022/11/22 07:23:27;;;;;;;;;1.00;1.00;;;;;6.77;87.79;97999.44;5009344;28;45492;-74
2022/11/22 07:25:52;;;;;;;;;1.25;1.00;;;;;6.78;89.35;97997.66;4999970;28;45469;-72
2022/11/22 07:28:17;;;;;;;;;2.50;1.50;;;;;6.80;88.96;98007.16;4998202;28;45644;-73
2022/11/22 07:30:43;;;;;;;;;1.00;1.00;;;;;6.81;88.57;98006.25;5002509;28;45630;-73
2022/11/22 07:33:08;;;;;;;;;4.00;1.00;;;;;6.81;89.49;98006.25;5008678;28;47243;-74
2022/11/22 07:35:34;;;;;;;;;2.75;1.75;;;;;6.81;90.90;98021.09;4999326;28;45275;-72
2022/11/22 07:38:00;;;;;;;;;2.00;2.00;;;;;6.75;90.86;98009.13;5000911;28;45430;-73
2022/11/22 07:40:26;;;;;;;;;2.00;1.00;;;;;6.73;91.00;98008.31;5001335;28;45385;-73
2022/11/22 07:42:51;;;;;;;;;3.50;2.25;;;;;6.69;90.67;98006.78;5006199;28;46365;-73
2022/11/22 07:45:17;;;;;;;;;3.00;2.50;;;;;6.71;91.38;98009.31;5003332;28;45344;-72
2022/11/22 07:47:42;;;;;;;;;3.00;2.00;;;;;6.73;90.27;98013.56;5004614;28;45462;-73
2022/11/22 07:50:08;;;;;;;;;4.00;3.00;;;;;6.76;90.29;98007.34;5010062;28;45488;-73
2022/11/22 07:52:33;;;;;;;;;3.00;2.50;;;;;6.77;91.13;98019.53;5011259;28;46229;-74
2022/11/22 07:54:59;;;;;;;;;4.00;3.50;;;;;6.82;91.64;98014.94;5004381;28;45429;-72
2022/11/22 07:57:24;;;;;;;;;2.25;1.00;;;;;6.84;90.27;98016.59;4998020;28;45476;-72
2022/11/22 07:59:50;;;;;;;;;4.75;3.00;;;;;6.88;90.26;97998.94;4994746;28;45593;-74
2022/11/22 08:02:15;;;;;;;;;1.75;1.00;;;;;6.89;87.77;98004.13;4997350;28;46134;-74
2022/11/22 08:04:41;;;;;;;;;4.00;2.00;;;;;6.91;87.11;98006.69;5001118;28;45446;-73
2022/11/22 08:07:06;;;;;;;;;4.00;1.50;;;;;6.94;87.07;98003.94;5005098;28;45442;-74
2022/11/22 08:09:32;;;;;;;;;4.50;2.75;;;;;6.95;87.14;98016.13;5021852;28;45356;-72
2022/11/22 08:11:57;;;;;;;;;1.75;1.75;;;;;6.96;87.56;98018.69;4995143;28;46281;-72
2022/11/22 08:14:22;;;;;;;;;1.25;1.25;;;;;6.98;87.14;98026.47;4996673;28;45503;-75
2022/11/22 08:16:48;;;;;;;;;4.00;1.75;;;;;7.04;88.21;98033.22;4998655;28;45655;-74
2022/11/22 08:19:16;;;;;;;;;0.00;0.00;;;;;7.09;89.17;98032.09;5000002;28;45438;-73
2022/11/22 08:21:47;;;;;;;;;8.00;5.25;;;;;7.18;89.20;98034.31;4998364;28;45527;-74
2022/11/22 08:24:15;;;;;;;;;5.00;5.00;;;;;7.25;87.57;98046.22;5007454;28;45524;-74
2022/11/22 08:26:42;;;;;;;;;4.00;2.75;;;;;7.29;88.45;98047.81;5007199;28;45551;-74
2022/11/22 08:29:11;;;;;;;;;4.25;3.50;;;;;7.38;88.29;98040.44;5011454;28;45666;-74
2022/11/22 08:31:37;;;;;;;;;3.75;1.00;;;;;7.46;87.28;98047.06;5004597;28;46442;-74
2022/11/22 08:34:03;;;;;;;;;5.25;1.50;;;;;7.55;87.98;98059.75;5013915;28;45388;-74
2022/11/22 08:36:29;;;;;;;;;3.75;3.75;;;;;7.70;87.97;98058.22;5004436;28;45726;-74
2022/11/22 08:38:54;;;;;;;;;4.00;3.50;;;;;7.84;88.30;98075.94;5017715;28;45503;-74
2022/11/22 08:41:20;;;;;;;;;5.00;3.00;;;;;7.96;88.97;98083.25;5001822;28;46291;-74
2022/11/22 08:43:49;;;;;;;;;3.25;3.00;;;;;8.08;87.99;98085.31;5006480;28;45386;-74
2022/11/22 08:46:15;;;;;;;;;3.50;3.50;;;;;8.19;87.78;98087.44;5008366;28;45480;-74
2022/11/22 08:48:40;;;;;;;;;5.00;3.75;;;;;8.27;86.88;98096.66;5009774;28;45534;-73
2022/11/22 08:51:09;;;;;;;;;3.75;3.75;;;;;8.36;87.04;98084.91;5003919;28;46674;-74
2022/11/22 08:53:40;;;;;;;;;10.25;7.25;;;;;8.42;87.77;98084.59;5010970;28;45465;-73
2022/11/22 08:56:08;;;;;;;;;10.50;8.25;;;;;8.50;87.92;98086.84;5005650;28;45498;-74
2022/11/22 08:58:35;;;;;;;;;8.00;8.00;;;;;8.58;88.25;98087.31;5012624;28;45421;-74
2022/11/22 09:01:12;;;;;;;;;8.25;6.75;;;;;8.66;88.40;98095.69;5006701;28;45534;-74
2022/11/22 09:03:39;;;;;;;;;11.50;11.25;;;;;8.73;88.02;98100.56;4995745;28;45577;-74
2022/11/22 09:06:07;;;;;;;;;12.50;10.50;;;;;8.78;88.08;98087.22;4998370;28;45700;-73
2022/11/22 09:08:34;;;;;;;;;12.00;10.25;;;;;8.82;88.39;98090.53;5000630;28;45469;-74
2022/11/22 09:11:01;;;;;;;;;14.25;11.25;;;;;8.84;87.96;98107.09;5008563;28;47209;-73
2022/11/22 09:13:28;;;;;;;;;16.50;11.75;;;;;8.83;88.46;98108.00;5007269;28;45400;-74
2022/11/22 09:15:54;;;;;;;;;14.25;12.25;;;;;8.84;88.23;98110.56;5000873;28;45460;-74
2022/11/22 09:18:19;;;;;;;;;14.00;11.00;;;;;8.86;88.47;98103.47;5013755;28;45486;-73
2022/11/22 09:20:44;;;;;;;;;11.33;10.67;;;;;8.86;88.27;98108.72;5004917;28;45829;-74
2022/11/22 09:23:10;;;;;;;;;14.33;13.33;;;;;8.88;88.39;98103.38;4994158;28;45416;-74
2022/11/22 09:25:35;;;;;;;;;12.50;11.25;;;;;8.92;88.49;98112.81;5000216;28;45445;-74
2022/11/22 09:28:01;;;;;;;;;15.33;15.33;;;;;8.97;88.51;98111.66;5001267;28;45558;-74
2022/11/22 09:30:28;;;;;;;;;12.75;11.75;;;;;9.04;87.96;98113.06;5011463;28;45463;-74
2022/11/22 09:32:53;;;;;;;;;12.00;11.50;;;;;9.15;87.94;98115.13;4998070;28;45601;-74
2022/11/22 09:35:19;;;;;;;;;10.50;9.25;;;;;9.27;87.71;98113.66;4996218;28;45929;-74
2022/11/22 09:37:45;;;;;;;;;12.25;11.00;;;;;9.39;87.42;98113.88;4995744;28;45404;-74
2022/11/22 09:40:11;;;;;;;;;11.50;10.25;;;;;9.49;87.14;98114.28;5001018;28;45893;-72
2022/11/22 09:42:43;;;;;;;;;15.00;12.00;;;;;9.54;86.22;98116.66;5005962;28;45410;-74
2022/11/22 09:45:45;;;;;;;;;13.25;11.50;;;;;9.56;85.83;98125.31;4998833;28;45496;-74
2022/11/22 09:48:25;;;;;;;;;14.75;13.50;;;;;9.61;85.79;98123.28;4991720;28;45415;-73
2022/11/22 09:50:56;;;;;;;;;8.00;8.00;;;;;9.64;85.09;98131.88;5000762;28;45529;-73
2022/11/22 09:53:25;;;;;;;;;8.50;7.50;;;;;9.65;84.13;98124.84;5017505;28;45419;-73
2022/11/22 09:55:54;;;;;;;;;7.00;6.00;;;;;9.65;82.99;98123.06;5004059;28;45543;-74
2022/11/22 09:58:50;;;;;;;;;4.25;4.00;;;;;9.69;82.37;98118.50;5019757;28;45433;-74
2022/11/22 10:01:18;;;;;;;;;4.25;3.00;;;;;9.73;81.17;98125.28;5021063;28;48185;-73
2022/11/22 10:04:05;;;;;;;;;3.00;3.00;;;;;9.78;81.15;98128.53;5009800;28;45360;-73
2022/11/22 10:06:42;;;;;;;;;3.50;3.00;;;;;9.83;81.73;98115.13;4996840;28;45399;-74
2022/11/22 10:09:28;;;;;;;;;4.00;4.00;;;;;9.85;81.43;98115.91;4997680;28;45417;-74
2022/11/22 10:11:56;;;;;;;;;4.00;3.00;;;;;9.92;81.46;98109.34;4989289;28;46201;-74
2022/11/22 10:14:28;;;;;;;;;6.50;3.75;;;;;10.04;81.71;98100.81;5010682;28;45534;-74
2022/11/22 10:17:01;;;;;;;;;9.50;4.00;;;;;10.13;81.33;98097.69;5009520;28;45351;-74
2022/11/22 10:19:52;;;;;;;;;5.00;2.00;;;;;10.23;80.82;98100.69;5039572;28;45621;-74
2022/11/22 10:22:18;;;;;;;;;4.25;4.00;;;;;10.33;81.03;98112.44;5011591;28;45490;-74
2022/11/22 10:24:43;;;;;;;;;5.00;3.75;;;;;10.43;79.99;98106.56;5009763;28;45466;-74
2022/11/22 10:27:14;;;;;;;;;3.50;3.00;;;;;10.47;79.24;98100.19;5030473;28;45494;-74
2022/11/22 10:30:01;;;;;;;;;2.00;1.00;;;;;10.57;78.23;98097.88;4999732;28;45386;-74
2022/11/22 10:32:36;;;;;;;;;3.25;2.00;;;;;10.62;78.00;98092.34;4999338;28;46474;-74
2022/11/22 10:35:25;;;;;;;;;3.00;1.80;;;;;10.67;78.02;98093.78;5001280;28;45435;-74
2022/11/22 10:38:36;;;;;;;;;3.75;3.00;;;;;10.67;76.21;98085.03;5000047;28;45421;-74
2022/11/22 10:41:25;;;;;;;;;2.00;1.50;;;;;10.69;77.29;98073.47;4998177;28;45430;-73
2022/11/22 10:44:23;;;;;;;;;2.75;2.75;;;;;10.77;76.78;98070.38;5002765;28;46146;-73
2022/11/22 10:47:36;;;;;;;;;3.50;3.25;;;;;10.88;76.45;98070.63;5004307;28;45469;-74
2022/11/22 10:50:07;;;;;;;;;3.25;2.25;;;;;10.98;75.95;98061.22;5007861;28;45591;-74
2022/11/22 10:52:49;;;;;;;;;3.00;1.25;;;;;11.00;72.17;98056.72;5010417;28;45472;-74
2022/11/22 10:55:21;;;;;;;;;0.00;0.00;;;;;10.96;72.16;98059.63;5007221;28;46319;-74
2022/11/22 10:58:13;;;;;;;;;1.00;1.00;;;;;10.99;72.74;98064.72;5008060;28;45345;-76
2022/11/22 11:00:44;;;;;;;;;1.25;1.25;;;;;11.05;73.37;98054.66;5006387;28;45457;-76
2022/11/22 11:03:21;;;;;;;;;1.75;1.50;;;;;11.13;73.54;98057.69;4996554;28;45515;-76
2022/11/22 11:05:46;;;;;;;;;0.00;0.00;;;;;11.22;72.02;98047.53;5002138;28;46504;-76
2022/11/22 11:08:43;;;;;;;;;3.75;0.75;;;;;11.31;71.81;98036.41;5001757;28;45505;-75
2022/11/22 11:11:08;;;;;;;;;2.00;2.00;;;;;11.38;71.85;98038.59;4998986;28;45511;-75
2022/11/22 11:13:40;;;;;;;;;0.25;0.25;;;;;11.45;70.36;98042.56;5007319;28;45522;-75
2022/11/22 11:16:14;;;;;;;;;1.00;1.00;;;;;11.47;68.03;98038.03;5008906;28;47148;-75
2022/11/22 11:18:46;;;;;;;;;1.00;1.00;;;;;11.45;68.20;98041.69;5024390;28;45504;-75
2022/11/22 11:21:13;;;;;;;;;4.25;1.75;;;;;11.44;68.88;98037.38;5004847;28;45332;-75
2022/11/22 11:23:39;;;;;;;;;1.00;1.00;;;;;11.44;67.91;98037.38;5002795;28;45372;-75
2022/11/22 11:26:25;;;;;;;;;0.00;0.00;;;;;11.38;66.50;98035.97;5003562;28;46644;-75
2022/11/22 11:29:17;;;;;;;;;0.00;0.00;;;;;11.33;64.60;98029.25;4995861;28;45485;-76
2022/11/22 11:31:43;;;;;;;;;0.25;0.00;;;;;11.24;64.05;98028.00;4997444;28;45444;-75
2022/11/22 11:34:26;;;;;;;;;0.25;0.00;;;;;11.13;63.55;98026.03;5012778;28;45392;-75
2022/11/22 11:36:55;;;;;;;;;0.00;0.00;;;;;11.11;68.22;98016.50;5001488;28;45442;-75
2022/11/22 11:39:22;;;;;;;;;2.00;0.20;;;;;11.11;65.34;98014.72;5009110;28;45458;-74
2022/11/22 11:41:48;;;;;;;;;1.25;0.00;;;;;11.16;65.56;98003.91;5004111;28;45393;-75
2022/11/22 11:44:36;;;;;;;;;0.00;0.00;;;;;11.23;65.14;98005.22;5012223;28;45482;-76
2022/11/22 11:47:03;;;;;;;;;2.00;0.25;;;;;11.29;64.03;97991.66;5006266;28;47295;-76
2022/11/22 11:49:31;;;;;;;;;0.40;0.00;;;;;11.35;63.71;97990.44;5012927;28;45467;-76
2022/11/22 11:51:58;;;;;;;;;0.75;0.50;;;;;11.39;62.14;97992.81;5008805;28;45412;-76
2022/11/22 11:54:28;;;;;;;;;0.00;0.00;;;;;11.41;61.69;97988.25;5012871;28;45834;-73
2022/11/22 11:57:02;;;;;;;;;2.00;2.00;;;;;11.43;64.19;97986.38;4999508;28;46192;-75
2022/11/22 11:59:36;;;;;;;;;4.50;4.25;;;;;11.51;67.65;97980.63;4998489;28;45435;-75